Time;durP1;ratioP1;P1;durP2;ratioP2;P2;SDS_P1;SDS_P2;PMS_P1;PMS_P2;Temp;Humidity;BMP_temperature;BMP_pressure;BME280_temperature;BME280_humidity;BME280_pressure;Samples;Min_cycle;Max_cycle;Signal;HPM_P1;HPM_P2
2021/12/15 00:00:46;;;;;;;163.45;45.20;;;;;;;;;;4996184;28;20046;-70
2021/12/15 00:03:16;;;;;;;152.85;45.88;;;;;;;;;;4996057;28;20029;-69
2021/12/15 00:05:45;;;;;;;166.00;45.65;;;;;;;;;;4994933;28;20030;-70
2021/12/15 00:08:13;;;;;;;191.93;50.40;;;;;;;;;;4996091;28;20023;-70
2021/12/15 00:10:41;;;;;;;166.18;46.63;;;;;;;;;;4994935;28;20141;-70
2021/12/15 00:13:11;;;;;;;184.25;48.17;;;;;;;;;;4994871;28;20088;-70
2021/12/15 00:15:39;;;;;;;141.45;46.05;;;;;;;;;;4995981;28;20026;-70
2021/12/15 00:18:07;;;;;;;135.45;43.30;;;;;;;;;;4995875;28;20022;-70
2021/12/15 00:20:35;;;;;;;142.00;46.38;;;;;;;;;;4995943;28;20023;-70
2021/12/15 00:23:04;;;;;;;154.60;46.78;;;;;;;;;;4994753;28;20026;-70
2021/12/15 00:25:33;;;;;;;162.98;46.63;;;;;;;;;;4994891;28;20033;-70
2021/12/15 00:28:01;;;;;;;150.15;44.38;;;;;;;;;;4995962;28;20030;-70
2021/12/15 00:30:29;;;;;;;197.55;51.28;;;;;;;;;;4995151;28;20188;-70
2021/12/15 00:32:58;;;;;;;159.80;48.53;;;;;;;;;;4999450;28;20054;-70
2021/12/15 00:35:25;;;;;;;160.68;47.97;;;;;;;;;;4999446;28;20076;-70
2021/12/15 00:37:56;;;;;;;125.78;46.97;;;;;;;;;;4998234;28;20022;-71
2021/12/15 00:40:24;;;;;;;220.27;50.40;;;;;;;;;;4999230;28;20015;-70
2021/12/15 00:42:52;;;;;;;219.05;51.08;;;;;;;;;;4999343;28;20034;-70
2021/12/15 00:45:20;;;;;;;139.68;45.28;;;;;;;;;;4999266;28;20026;-70
2021/12/15 00:47:47;;;;;;;170.05;47.13;;;;;;;;;;4999157;28;20080;-69
2021/12/15 00:50:20;;;;;;;147.70;42.25;;;;;;;;;;4998021;28;20034;-70
2021/12/15 00:52:48;;;;;;;182.70;45.42;;;;;;;;;;4997918;28;20327;-70
2021/12/15 00:55:19;;;;;;;138.48;40.92;;;;;;;;;;4999020;28;20022;-70
2021/12/15 00:57:46;;;;;;;229.25;48.83;;;;;;;;;;4999197;28;20033;-70
2021/12/15 01:00:17;;;;;;;310.30;52.65;;;;;;;;;;4999056;28;20073;-70
2021/12/15 01:02:44;;;;;;;203.82;55.72;;;;;;;;;;4999495;28;20080;-70
2021/12/15 01:05:14;;;;;;;269.83;58.60;;;;;;;;;;4998286;28;20172;-69
2021/12/15 01:07:42;;;;;;;347.48;76.53;;;;;;;;;;4999411;28;20038;-71
2021/12/15 01:10:12;;;;;;;333.50;71.10;;;;;;;;;;4999352;28;20034;-70
2021/12/15 01:20:48;;;;;;;395.63;62.28;;;;;;;;;;5017072;28;20091;-72
2021/12/15 01:23:19;;;;;;;179.77;52.55;;;;;;;;;;5014139;28;20014;-71
2021/12/15 01:25:49;;;;;;;223.93;61.25;;;;;;;;;;5012442;28;20391;-71
2021/12/15 01:28:16;;;;;;;374.58;67.85;;;;;;;;;;5001055;28;20416;-71
2021/12/15 01:30:46;;;;;;;395.92;70.32;;;;;;;;;;4997833;28;20033;-74
2021/12/15 01:33:13;;;;;;;430.20;79.07;;;;;;;;;;4997671;28;20054;-69
2021/12/15 01:35:42;;;;;;;261.98;61.50;;;;;;;;;;4998604;28;20113;-68
2021/12/15 01:38:12;;;;;;;269.05;60.22;;;;;;;;;;4998400;28;20037;-70
2021/12/15 01:40:43;;;;;;;204.38;54.20;;;;;;;;;;4998592;28;20030;-70
2021/12/15 01:43:17;;;;;;;256.27;56.85;;;;;;;;;;4996688;28;20026;-71
2021/12/15 01:48:34;;;;;;;254.70;58.25;;;;;;;;;;4998051;28;20052;-70
2021/12/15 01:51:03;;;;;;;266.85;61.85;;;;;;;;;;4997564;28;20033;-77
2021/12/15 01:53:31;;;;;;;457.13;64.78;;;;;;;;;;4997255;28;20382;-69
2021/12/15 01:55:59;;;;;;;272.67;55.53;;;;;;;;;;5008727;28;20022;-71
2021/12/15 01:58:27;;;;;;;198.80;57.13;;;;;;;;;;4996139;28;20018;-71
2021/12/15 02:00:58;;;;;;;177.82;55.22;;;;;;;;;;5007386;28;20032;-71
2021/12/15 02:03:26;;;;;;;290.98;82.90;;;;;;;;;;5015286;28;20030;-71
2021/12/15 02:05:54;;;;;;;272.25;75.60;;;;;;;;;;5018073;28;20036;-71
2021/12/15 02:08:25;;;;;;;233.75;58.47;;;;;;;;;;5015818;28;20030;-70
2021/12/15 02:10:53;;;;;;;245.63;75.47;;;;;;;;;;5017568;28;20038;-70
2021/12/15 02:13:21;;;;;;;208.50;65.35;;;;;;;;;;5015486;28;20081;-70
2021/12/15 02:15:51;;;;;;;210.45;66.28;;;;;;;;;;5017176;28;20030;-66
2021/12/15 02:18:25;;;;;;;319.48;75.10;;;;;;;;;;5017450;28;20564;-70
2021/12/15 02:20:55;;;;;;;211.05;68.00;;;;;;;;;;5015590;28;20022;-70
2021/12/15 02:23:30;;;;;;;252.07;69.70;;;;;;;;;;5016430;28;20441;-70
2021/12/15 02:25:57;;;;;;;207.95;69.35;;;;;;;;;;5016373;28;20029;-70
2021/12/15 02:28:26;;;;;;;195.70;62.92;;;;;;;;;;5016511;28;20080;-69
2021/12/15 02:33:43;;;;;;;250.85;62.00;;;;;;;;;;5016415;28;20107;-70
2021/12/15 02:39:09;;;;;;;313.60;71.68;;;;;;;;;;5014223;28;20026;-69
2021/12/15 02:41:48;;;;;;;418.73;74.25;;;;;;;;;;4991551;28;20380;-74
2021/12/15 02:44:20;;;;;;;302.92;70.07;;;;;;;;;;5014402;28;20052;-71
2021/12/15 02:46:49;;;;;;;351.05;92.72;;;;;;;;;;5014460;28;20030;-70
2021/12/15 02:49:18;;;;;;;212.85;63.28;;;;;;;;;;5014346;28;20077;-70
2021/12/15 02:51:48;;;;;;;224.32;74.82;;;;;;;;;;5014152;28;20446;-72
2021/12/15 02:54:20;;;;;;;371.73;81.40;;;;;;;;;;4997168;28;20407;-68
2021/12/15 02:56:50;;;;;;;428.75;86.25;;;;;;;;;;5014226;28;20042;-68
2021/12/15 02:59:21;;;;;;;312.38;74.82;;;;;;;;;;4992556;28;20018;-69
2021/12/15 03:02:10;;;;;;;300.27;74.38;;;;;;;;;;4994375;28;20149;-69
2021/12/15 03:05:01;;;;;;;379.60;78.40;;;;;;;;;;4994598;28;20152;-71
2021/12/15 03:07:42;;;;;;;302.92;74.80;;;;;;;;;;4994582;28;20065;-71
2021/12/15 03:15:45;;;;;;;299.60;81.10;;;;;;;;;;4994942;28;20406;-72
2021/12/15 03:18:17;;;;;;;218.85;73.45;;;;;;;;;;4995040;28;20073;-71
2021/12/15 03:21:01;;;;;;;233.23;75.40;;;;;;;;;;4994801;28;20374;-70
2021/12/15 03:23:32;;;;;;;266.77;71.00;;;;;;;;;;4996254;28;20059;-70
2021/12/15 03:26:00;;;;;;;260.92;73.70;;;;;;;;;;4996316;28;20113;-71
2021/12/15 03:34:14;;;;;;;247.70;75.13;;;;;;;;;;4995998;28;20742;-73
2021/12/15 03:39:44;;;;;;;372.05;99.68;;;;;;;;;;5013886;28;20407;-69
2021/12/15 03:42:16;;;;;;;313.27;88.65;;;;;;;;;;5013761;28;20045;-70
2021/12/15 03:44:44;;;;;;;254.35;80.40;;;;;;;;;;5013883;28;20033;-67
2021/12/15 03:47:15;;;;;;;296.48;80.97;;;;;;;;;;4997537;28;20025;-69
2021/12/15 03:49:43;;;;;;;567.65;95.97;;;;;;;;;;4977570;28;20034;-68
2021/12/15 03:52:12;;;;;;;234.77;80.60;;;;;;;;;;4994102;28;20085;-67
2021/12/15 03:54:39;;;;;;;396.23;91.43;;;;;;;;;;4977777;28;20057;-71
2021/12/15 03:57:08;;;;;;;326.20;89.07;;;;;;;;;;4994124;28;20045;-67
2021/12/15 03:59:41;;;;;;;316.08;97.35;;;;;;;;;;4994590;28;20022;-68
2021/12/15 04:02:13;;;;;;;276.80;91.95;;;;;;;;;;4994137;28;20026;-68
2021/12/15 04:04:41;;;;;;;329.90;95.53;;;;;;;;;;4995305;28;20427;-69
2021/12/15 04:07:09;;;;;;;445.77;110.35;;;;;;;;;;4982151;28;20045;-69
2021/12/15 04:09:36;;;;;;;540.80;105.30;;;;;;;;;;4981745;28;20053;-67
2021/12/15 04:12:04;;;;;;;371.27;99.18;;;;;;;;;;4998061;28;20030;-69
2021/12/15 04:14:42;;;;;;;353.55;95.93;;;;;;;;;;4981541;28;20026;-70
2021/12/15 04:17:26;;;;;;;393.50;98.10;;;;;;;;;;4997928;28;20034;-65
2021/12/15 04:19:55;;;;;;;544.00;110.05;;;;;;;;;;4997978;28;20040;-68
2021/12/15 04:22:24;;;;;;;453.40;98.68;;;;;;;;;;4981644;28;20023;-68
2021/12/15 04:24:52;;;;;;;299.85;84.55;;;;;;;;;;4997503;28;20026;-69
2021/12/15 04:27:20;;;;;;;360.30;89.45;;;;;;;;;;4981258;28;20446;-68
2021/12/15 04:29:49;;;;;;;509.65;114.43;;;;;;;;;;4981241;28;20061;-70
2021/12/15 04:32:40;;;;;;;382.50;109.18;;;;;;;;;;4980548;28;20442;-68
2021/12/15 04:35:09;;;;;;;533.85;115.85;;;;;;;;;;4981115;28;20121;-67
2021/12/15 04:37:37;;;;;;;572.85;115.15;;;;;;;;;;4961590;28;20125;-67
2021/12/15 04:40:06;;;;;;;727.58;147.05;;;;;;;;;;4961538;28;20113;-70
2021/12/15 04:42:33;;;;;;;446.35;116.18;;;;;;;;;;4961278;28;20105;-69
2021/12/15 04:45:01;;;;;;;526.25;145.43;;;;;;;;;;4977238;28;20037;-69
2021/12/15 04:47:29;;;;;;;933.28;208.57;;;;;;;;;;4998647;28;20443;-69
2021/12/15 04:50:00;;;;;;;516.65;158.90;;;;;;;;;;5000776;28;20039;-70
2021/12/15 04:52:29;;;;;;;486.35;138.10;;;;;;;;;;4998512;28;20030;-68
2021/12/15 04:54:58;;;;;;;713.65;149.10;;;;;;;;;;4997909;28;20326;-69
2021/12/15 04:57:26;;;;;;;717.95;185.52;;;;;;;;;;4997433;28;20441;-70
2021/12/15 04:59:54;;;;;;;453.65;113.85;;;;;;;;;;4998754;28;20026;-69
2021/12/15 05:02:26;;;;;;;501.95;134.35;;;;;;;;;;4997320;28;20030;-68
2021/12/15 05:04:54;;;;;;;625.75;131.05;;;;;;;;;;4998202;28;20122;-69
2021/12/15 05:07:21;;;;;;;386.58;120.82;;;;;;;;;;4998937;28;20102;-71
2021/12/15 05:09:50;;;;;;;516.80;129.07;;;;;;;;;;4999859;28;20049;-68
2021/12/15 05:12:19;;;;;;;543.22;132.25;;;;;;;;;;4997270;28;20030;-70
2021/12/15 05:14:46;;;;;;;384.58;111.15;;;;;;;;;;4998288;28;20050;-67
2021/12/15 05:17:14;;;;;;;400.42;122.75;;;;;;;;;;4997782;28;20072;-68
2021/12/15 05:19:43;;;;;;;356.80;108.47;;;;;;;;;;4998330;28;20023;-67
2021/12/15 05:22:11;;;;;;;367.70;112.47;;;;;;;;;;4998526;28;20030;-67
2021/12/15 05:24:38;;;;;;;348.88;106.07;;;;;;;;;;4998173;28;20360;-67
2021/12/15 05:27:09;;;;;;;387.05;118.15;;;;;;;;;;4998421;28;20026;-68
2021/12/15 05:29:38;;;;;;;385.63;118.40;;;;;;;;;;4998402;28;20023;-68
2021/12/15 05:32:05;;;;;;;380.13;113.88;;;;;;;;;;4998172;28;20027;-68
2021/12/15 05:34:33;;;;;;;367.23;109.90;;;;;;;;;;4997917;28;20101;-68
2021/12/15 05:37:00;;;;;;;407.58;110.72;;;;;;;;;;4997898;28;20030;-68
2021/12/15 05:39:28;;;;;;;356.38;109.90;;;;;;;;;;4996863;28;20276;-68
2021/12/15 05:41:56;;;;;;;350.08;111.68;;;;;;;;;;4996536;28;20382;-67
2021/12/15 05:44:25;;;;;;;354.90;113.15;;;;;;;;;;4997851;28;20030;-67
2021/12/15 05:46:53;;;;;;;381.67;123.32;;;;;;;;;;4996887;28;20482;-67
2021/12/15 05:49:21;;;;;;;477.83;141.32;;;;;;;;;;4996706;28;20123;-68
2021/12/15 05:51:49;;;;;;;388.73;125.43;;;;;;;;;;4997569;28;20031;-67
2021/12/15 05:54:16;;;;;;;368.35;121.40;;;;;;;;;;4996498;28;20023;-67
2021/12/15 05:56:44;;;;;;;377.30;119.65;;;;;;;;;;4997591;28;20474;-68
2021/12/15 05:59:12;;;;;;;373.58;113.72;;;;;;;;;;4997383;28;20080;-68
2021/12/15 06:01:40;;;;;;;360.60;112.70;;;;;;;;;;4997227;28;20046;-68
2021/12/15 06:04:09;;;;;;;352.55;112.10;;;;;;;;;;4997190;28;20080;-68
2021/12/15 06:06:37;;;;;;;360.45;112.57;;;;;;;;;;4997268;28;20037;-67
2021/12/15 06:09:06;;;;;;;341.25;114.88;;;;;;;;;;4996650;28;20034;-68
2021/12/15 06:11:34;;;;;;;401.13;123.40;;;;;;;;;;4996849;28;20034;-67
2021/12/15 06:14:02;;;;;;;360.35;112.45;;;;;;;;;;4997085;28;20050;-68
2021/12/15 06:16:30;;;;;;;398.60;130.68;;;;;;;;;;4996009;28;20474;-69
2021/12/15 06:18:58;;;;;;;465.13;163.25;;;;;;;;;;4995983;28;20022;-68
2021/12/15 06:21:25;;;;;;;464.30;149.25;;;;;;;;;;4996853;28;20024;-66
2021/12/15 06:23:53;;;;;;;360.90;117.72;;;;;;;;;;4996051;28;20022;-67
2021/12/15 06:26:21;;;;;;;368.80;113.25;;;;;;;;;;4995111;28;20034;-68
2021/12/15 06:28:49;;;;;;;420.25;121.80;;;;;;;;;;4994815;28;20428;-68
2021/12/15 06:31:17;;;;;;;444.33;136.23;;;;;;;;;;4995653;28;20034;-69
2021/12/15 06:33:46;;;;;;;399.77;123.72;;;;;;;;;;4995252;28;20347;-68
2021/12/15 06:36:20;;;;;;;353.75;113.53;;;;;;;;;;4996487;28;20035;-69
2021/12/15 06:38:50;;;;;;;326.08;102.32;;;;;;;;;;4996373;28;20029;-68
2021/12/15 06:41:18;;;;;;;343.70;105.78;;;;;;;;;;4996449;28;20022;-68
2021/12/15 06:43:49;;;;;;;382.83;113.10;;;;;;;;;;4996675;28;20077;-68
2021/12/15 06:59:49;;;;;;;358.55;117.70;;;;;;;;;;4995936;28;20379;-69
2021/12/15 07:02:17;;;;;;;357.60;112.45;;;;;;;;;;4996019;28;20052;-68
2021/12/15 07:04:45;;;;;;;319.60;104.97;;;;;;;;;;4995812;28;20045;-69
2021/12/15 07:07:12;;;;;;;322.25;106.40;;;;;;;;;;4994694;28;20026;-68
2021/12/15 07:09:40;;;;;;;315.88;103.53;;;;;;;;;;4978926;28;20041;-68
2021/12/15 07:12:09;;;;;;;316.77;101.40;;;;;;;;;;4995899;28;20022;-69
2021/12/15 07:14:37;;;;;;;301.58;97.85;;;;;;;;;;4996065;28;20022;-69
2021/12/15 07:17:09;;;;;;;285.38;90.88;;;;;;;;;;4996035;28;20022;-69
2021/12/15 07:20:03;;;;;;;280.05;101.30;;;;;;;;;;4995864;28;20050;-67
2021/12/15 07:22:43;;;;;;;323.83;105.93;;;;;;;;;;4995788;28;20113;-67
2021/12/15 07:25:13;;;;;;;346.92;119.53;;;;;;;;;;4995541;28;20145;-66
2021/12/15 07:27:41;;;;;;;487.35;177.50;;;;;;;;;;4995859;28;20030;-68
2021/12/15 07:30:09;;;;;;;354.55;119.65;;;;;;;;;;4995983;28;20112;-69
2021/12/15 07:32:36;;;;;;;459.05;164.20;;;;;;;;;;4996374;28;20042;-68
2021/12/15 07:35:05;;;;;;;401.27;140.65;;;;;;;;;;4995285;28;20073;-69
2021/12/15 07:37:33;;;;;;;388.73;134.65;;;;;;;;;;4995857;28;20022;-68
2021/12/15 07:40:03;;;;;;;368.70;128.60;;;;;;;;;;4996584;28;20035;-69
2021/12/15 07:42:35;;;;;;;360.67;125.28;;;;;;;;;;4999838;28;20435;-69
2021/12/15 07:45:04;;;;;;;370.83;137.35;;;;;;;;;;5000194;28;20026;-69
2021/12/15 07:47:32;;;;;;;351.63;120.22;;;;;;;;;;5000422;28;20335;-72
2021/12/15 07:50:02;;;;;;;342.02;119.97;;;;;;;;;;4999127;28;20030;-72
2021/12/15 07:55:19;;;;;;;369.75;144.10;;;;;;;;;;5250914;22;20045;-70
2021/12/15 07:57:47;;;;;;;353.73;127.65;;;;;;;;;;5042588;28;20021;-71
2021/12/15 08:00:15;;;;;;;357.60;125.93;;;;;;;;;;5043337;28;20326;-69
2021/12/15 08:05:19;;;;;;;351.75;121.90;;;;;;;;;;5304996;23;20060;-71
2021/12/15 08:07:48;;;;;;;358.17;123.10;;;;;;;;;;5006145;28;20037;-73
2021/12/15 08:10:17;;;;;;;285.73;103.65;;;;;;;;;;5001390;28;20030;-72
2021/12/15 08:12:46;;;;;;;263.40;94.80;;;;;;;;;;5016844;28;20042;-72
2021/12/15 08:15:15;;;;;;;309.15;123.47;;;;;;;;;;5017004;28;20034;-73
2021/12/15 08:17:50;;;;;;;290.90;108.82;;;;;;;;;;5002896;28;20038;-70
2021/12/15 08:20:21;;;;;;;246.50;94.82;;;;;;;;;;5000856;28;20026;-69
2021/12/15 08:22:48;;;;;;;245.85;94.68;;;;;;;;;;5002116;28;20026;-69
2021/12/15 08:25:17;;;;;;;203.63;77.90;;;;;;;;;;5000571;28;20038;-73
2021/12/15 08:27:46;;;;;;;200.98;77.88;;;;;;;;;;5002478;28;20323;-68
2021/12/15 08:30:19;;;;;;;182.85;71.57;;;;;;;;;;5001290;28;20041;-69
2021/12/15 08:32:48;;;;;;;172.55;67.68;;;;;;;;;;5015472;28;20030;-70
2021/12/15 08:35:16;;;;;;;216.30;93.60;;;;;;;;;;5016221;28;20030;-72
2021/12/15 08:37:44;;;;;;;213.30;80.68;;;;;;;;;;5004944;28;20019;-69
2021/12/15 08:40:12;;;;;;;175.75;71.70;;;;;;;;;;4999966;28;20169;-70
2021/12/15 08:42:40;;;;;;;158.27;62.97;;;;;;;;;;5000489;28;20045;-69
2021/12/15 08:45:08;;;;;;;152.93;60.70;;;;;;;;;;5014102;28;20037;-69
2021/12/15 08:47:36;;;;;;;162.60;64.18;;;;;;;;;;4995953;28;20109;-69
2021/12/15 08:50:06;;;;;;;152.35;62.78;;;;;;;;;;4981063;28;20082;-70
2021/12/15 08:52:34;;;;;;;145.07;58.00;;;;;;;;;;4979265;28;20034;-70
2021/12/15 08:55:04;;;;;;;141.07;57.08;;;;;;;;;;4995723;28;20030;-70
2021/12/15 08:57:31;;;;;;;164.73;69.10;;;;;;;;;;4980756;28;20034;-70
2021/12/15 08:59:59;;;;;;;177.25;81.78;;;;;;;;;;4980749;28;20050;-69
2021/12/15 09:02:27;;;;;;;168.27;77.70;;;;;;;;;;4998605;28;20054;-72
2021/12/15 09:04:53;;;;;;;143.57;61.95;;;;;;;;;;4985781;28;20055;-72
2021/12/15 09:07:20;;;;;;;135.90;58.47;;;;;;;;;;4986032;28;20011;-69
2021/12/15 09:09:48;;;;;;;154.80;69.40;;;;;;;;;;5013954;28;20027;-71
2021/12/15 09:12:19;;;;;;;161.55;69.65;;;;;;;;;;5016781;28;20030;-71
2021/12/15 09:14:47;;;;;;;156.57;67.90;;;;;;;;;;5002456;28;20030;-73
2021/12/15 09:17:16;;;;;;;152.25;65.20;;;;;;;;;;5003046;28;20078;-72
2021/12/15 09:19:45;;;;;;;177.95;77.07;;;;;;;;;;5004781;28;20027;-71
2021/12/15 09:22:13;;;;;;;186.63;82.05;;;;;;;;;;5005028;28;20022;-69
2021/12/15 09:24:43;;;;;;;148.60;62.53;;;;;;;;;;5015712;28;20022;-70
2021/12/15 09:27:11;;;;;;;154.95;67.07;;;;;;;;;;4988458;28;20109;-70
2021/12/15 09:29:38;;;;;;;158.02;68.78;;;;;;;;;;4980125;28;20058;-69
2021/12/15 09:32:06;;;;;;;143.40;62.17;;;;;;;;;;4981071;28;20077;-70
2021/12/15 09:34:35;;;;;;;205.30;85.50;;;;;;;;;;4998051;28;20118;-71
2021/12/15 09:37:04;;;;;;;172.70;71.68;;;;;;;;;;4980524;28;20371;-73
2021/12/15 09:39:32;;;;;;;152.60;61.47;;;;;;;;;;4980610;28;20034;-70
2021/12/15 09:42:03;;;;;;;170.02;66.82;;;;;;;;;;4982408;28;20057;-70
2021/12/15 09:44:31;;;;;;;161.18;63.30;;;;;;;;;;4988959;28;20034;-71
2021/12/15 10:20:03;;;;;;;248.80;112.68;;;;;;;;;;4979903;28;20352;-70
2021/12/15 10:22:44;;;;;;;215.73;95.57;;;;;;;;;;4978177;28;20038;-72
2021/12/15 10:25:25;;;;;;;193.23;83.03;;;;;;;;;;4977929;28;20050;-71
2021/12/15 10:28:07;;;;;;;195.75;84.30;;;;;;;;;;4983509;28;20031;-68
2021/12/15 10:30:52;;;;;;;192.20;83.35;;;;;;;;;;4991684;28;20394;-71
2021/12/15 10:33:41;;;;;;;195.02;80.57;;;;;;;;;;4979507;28;20034;-68
2021/12/15 10:36:18;;;;;;;239.98;99.93;;;;;;;;;;4978407;28;20027;-70
2021/12/15 10:38:59;;;;;;;224.38;89.15;;;;;;;;;;4978212;28;20029;-68
2021/12/15 10:41:36;;;;;;;215.70;86.32;;;;;;;;;;4977018;28;20026;-71
2021/12/15 10:44:06;;;;;;;189.93;77.57;;;;;;;;;;4976959;28;20037;-69
2021/12/15 10:46:49;;;;;;;182.40;74.18;;;;;;;;;;4977565;28;20300;-69
2021/12/15 10:49:33;;;;;;;177.80;74.28;;;;;;;;;;4977745;28;20029;-68
2021/12/15 10:52:10;;;;;;;259.15;108.80;;;;;;;;;;4977163;28;20443;-69
2021/12/15 10:54:50;;;;;;;243.88;100.65;;;;;;;;;;4977970;28;20027;-67
2021/12/15 10:57:28;;;;;;;234.40;93.75;;;;;;;;;;4977819;28;20320;-70
2021/12/15 10:59:56;;;;;;;216.65;91.30;;;;;;;;;;4977429;28;20019;-72
2021/12/15 11:02:29;;;;;;;227.88;89.85;;;;;;;;;;4977398;28;20376;-71
2021/12/15 11:05:10;;;;;;;185.15;82.97;;;;;;;;;;4977780;28;20106;-69
2021/12/15 11:07:54;;;;;;;171.07;74.47;;;;;;;;;;4977373;28;20033;-69
2021/12/15 11:10:26;;;;;;;221.23;93.07;;;;;;;;;;4977105;28;20062;-71
2021/12/15 11:12:59;;;;;;;247.82;109.60;;;;;;;;;;4977276;28;20440;-71
2021/12/15 11:15:29;;;;;;;184.82;79.15;;;;;;;;;;4975382;28;20050;-70
2021/12/15 11:18:17;;;;;;;190.80;76.60;;;;;;;;;;4976537;28;20045;-70
2021/12/15 11:20:49;;;;;;;189.15;79.05;;;;;;;;;;4977036;28;20030;-70
2021/12/15 11:23:18;;;;;;;200.93;83.22;;;;;;;;;;4977763;28;20023;-70
2021/12/15 11:25:55;;;;;;;203.13;85.00;;;;;;;;;;4977163;28;20490;-70
2021/12/15 11:28:27;;;;;;;212.30;87.50;;;;;;;;;;4977044;28;20109;-70
2021/12/15 11:31:06;;;;;;;189.13;75.15;;;;;;;;;;4976724;28;20101;-71
2021/12/15 11:34:00;;;;;;;202.52;85.03;;;;;;;;;;4977140;28;20373;-70
2021/12/15 11:36:44;;;;;;;206.98;82.50;;;;;;;;;;4975016;28;20535;-69
2021/12/15 11:39:24;;;;;;;210.50;81.25;;;;;;;;;;4976777;28;20023;-71
2021/12/15 11:41:54;;;;;;;276.38;106.97;;;;;;;;;;4975777;28;20027;-70
2021/12/15 11:44:26;;;;;;;205.82;77.63;;;;;;;;;;4976614;28;20415;-72
2021/12/15 11:47:04;;;;;;;193.20;73.47;;;;;;;;;;4977418;28;20027;-71
2021/12/15 11:49:34;;;;;;;170.07;67.53;;;;;;;;;;4976415;28;20015;-70
2021/12/15 11:52:08;;;;;;;196.93;70.97;;;;;;;;;;4976460;28;20367;-71
2021/12/15 11:54:39;;;;;;;222.27;82.72;;;;;;;;;;4975574;28;20057;-70
2021/12/15 11:57:17;;;;;;;211.02;82.78;;;;;;;;;;4975805;28;20323;-71
2021/12/15 11:59:49;;;;;;;241.93;88.60;;;;;;;;;;4976694;28;20027;-69
2021/12/15 12:02:34;;;;;;;189.00;69.95;;;;;;;;;;4976673;28;20126;-70
2021/12/15 12:05:05;;;;;;;176.25;70.13;;;;;;;;;;4976739;28;20034;-71
2021/12/15 12:07:41;;;;;;;239.18;93.53;;;;;;;;;;4976707;28;20054;-71
2021/12/15 12:10:09;;;;;;;256.80;102.75;;;;;;;;;;4976640;28;20038;-70
2021/12/15 12:12:41;;;;;;;324.13;119.07;;;;;;;;;;4976968;28;20082;-71
2021/12/15 12:15:13;;;;;;;310.48;129.90;;;;;;;;;;4976106;28;20106;-70
2021/12/15 12:17:41;;;;;;;224.95;81.70;;;;;;;;;;4976580;28;20031;-70
2021/12/15 12:20:17;;;;;;;212.02;78.20;;;;;;;;;;4976139;28;20026;-69
2021/12/15 12:22:46;;;;;;;187.93;73.82;;;;;;;;;;4974899;28;20400;-68
2021/12/15 12:25:24;;;;;;;174.10;66.75;;;;;;;;;;4976333;28;20097;-69
2021/12/15 12:27:52;;;;;;;176.85;69.72;;;;;;;;;;4979898;28;20019;-68
2021/12/15 12:30:23;;;;;;;175.50;68.65;;;;;;;;;;4978569;28;20035;-67
2021/12/15 12:32:51;;;;;;;179.52;69.13;;;;;;;;;;4978598;28;20034;-70
2021/12/15 12:35:20;;;;;;;188.32;79.70;;;;;;;;;;4979853;28;20019;-69
2021/12/15 12:37:56;;;;;;;246.07;100.20;;;;;;;;;;4978492;28;20094;-70
2021/12/15 12:40:30;;;;;;;280.50;99.07;;;;;;;;;;4981082;28;20073;-70
2021/12/15 12:42:57;;;;;;;506.13;143.43;;;;;;;;;;4981152;28;20467;-71
2021/12/15 12:45:38;;;;;;;315.67;120.90;;;;;;;;;;4997641;28;20031;-71
2021/12/15 12:59:48;;;;;;;245.90;100.13;;;;;;;;;;4958714;29;20455;-73
2021/12/15 13:02:55;;;;;;;240.65;89.60;;;;;;;;;;4958569;29;20044;-73
2021/12/15 13:05:30;;;;;;;221.68;86.53;;;;;;;;;;4958287;29;20031;-73
2021/12/15 13:08:01;;;;;;;249.40;94.05;;;;;;;;;;4958282;29;20433;-73
2021/12/15 13:10:45;;;;;;;217.93;92.28;;;;;;;;;;4957642;29;20087;-73
2021/12/15 13:13:18;;;;;;;210.98;80.00;;;;;;;;;;4959404;29;20043;-73
2021/12/15 13:15:56;;;;;;;220.23;83.82;;;;;;;;;;4960105;29;20063;-74
2021/12/15 13:18:25;;;;;;;231.55;86.13;;;;;;;;;;4958233;29;20024;-73
2021/12/15 13:20:58;;;;;;;250.02;92.90;;;;;;;;;;4958090;29;20038;-74
2021/12/15 13:23:45;;;;;;;264.35;101.63;;;;;;;;;;4958706;29;20118;-73
2021/12/15 13:29:22;;;;;;;284.58;106.22;;;;;;;;;;4997179;28;20331;-72
2021/12/15 13:31:58;;;;;;;258.98;97.35;;;;;;;;;;4974702;28;20042;-73
2021/12/15 13:34:39;;;;;;;255.15;91.72;;;;;;;;;;4979115;28;20029;-73
2021/12/15 13:37:07;;;;;;;272.17;107.13;;;;;;;;;;4979146;28;20019;-74
2021/12/15 13:40:11;;;;;;;267.30;94.72;;;;;;;;;;4979262;28;20018;-74
2021/12/15 13:42:49;;;;;;;319.70;115.18;;;;;;;;;;4978120;28;20474;-74
2021/12/15 13:45:32;;;;;;;260.98;93.18;;;;;;;;;;4979520;28;20030;-71
2021/12/15 13:48:00;;;;;;;256.58;107.72;;;;;;;;;;4979661;28;20031;-72
2021/12/15 13:50:30;;;;;;;251.13;93.18;;;;;;;;;;4980032;28;20106;-72
2021/12/15 13:53:03;;;;;;;266.02;93.80;;;;;;;;;;4981524;28;20439;-74
2021/12/15 13:55:39;;;;;;;238.27;91.00;;;;;;;;;;4996497;28;20033;-73
2021/12/15 13:58:17;;;;;;;232.88;96.18;;;;;;;;;;4997617;28;20078;-73
2021/12/15 14:00:51;;;;;;;253.85;91.55;;;;;;;;;;4997116;28;20029;-75
2021/12/15 14:03:20;;;;;;;297.65;109.80;;;;;;;;;;4996115;28;20042;-74
2021/12/15 14:05:59;;;;;;;264.98;103.82;;;;;;;;;;4989031;28;20034;-73
2021/12/15 14:08:46;;;;;;;245.88;90.40;;;;;;;;;;4980578;28;20033;-75
2021/12/15 14:11:18;;;;;;;242.35;91.43;;;;;;;;;;4981967;28;20055;-73
2021/12/15 14:14:05;;;;;;;249.38;93.28;;;;;;;;;;4980637;28;20117;-73
2021/12/15 14:16:34;;;;;;;271.30;101.82;;;;;;;;;;4958304;29;20050;-75
2021/12/15 14:19:03;;;;;;;290.08;108.60;;;;;;;;;;4958411;29;20030;-75
2021/12/15 14:21:34;;;;;;;260.35;102.05;;;;;;;;;;4958535;29;20039;-73
2021/12/15 14:24:02;;;;;;;237.77;94.93;;;;;;;;;;4959265;29;20037;-74
2021/12/15 14:26:33;;;;;;;230.15;91.43;;;;;;;;;;4957731;29;20031;-72
2021/12/15 14:29:04;;;;;;;239.55;93.18;;;;;;;;;;4957127;29;20034;-74
2021/12/15 14:31:33;;;;;;;209.70;81.78;;;;;;;;;;4957288;29;20082;-75
2021/12/15 14:34:07;;;;;;;233.02;87.95;;;;;;;;;;4957143;29;20043;-74
2021/12/15 14:36:36;;;;;;;264.48;103.55;;;;;;;;;;4956959;29;20066;-73
2021/12/15 14:39:14;;;;;;;234.15;92.50;;;;;;;;;;4937781;29;20087;-73
2021/12/15 14:41:44;;;;;;;261.42;98.07;;;;;;;;;;4937902;29;20039;-74
2021/12/15 14:44:19;;;;;;;312.98;117.30;;;;;;;;;;4937660;29;20102;-74
2021/12/15 14:46:54;;;;;;;235.63;91.97;;;;;;;;;;4921610;29;20036;-74
2021/12/15 14:49:31;;;;;;;221.45;78.97;;;;;;;;;;4936741;29;20031;-75
2021/12/15 14:52:14;;;;;;;242.20;88.30;;;;;;;;;;4921387;29;20031;-75
2021/12/15 14:54:42;;;;;;;282.65;110.20;;;;;;;;;;4939761;29;20336;-74
2021/12/15 14:57:11;;;;;;;286.02;117.72;;;;;;;;;;4956251;29;20020;-76
2021/12/15 14:59:45;;;;;;;294.58;123.13;;;;;;;;;;4956025;29;20560;-77
2021/12/15 15:02:25;;;;;;;242.13;96.53;;;;;;;;;;4956155;29;20476;-75
2021/12/15 15:04:55;;;;;;;250.77;101.88;;;;;;;;;;4955994;29;20038;-75
2021/12/15 15:07:24;;;;;;;262.83;98.32;;;;;;;;;;4955973;29;20457;-75
2021/12/15 15:09:52;;;;;;;229.30;93.53;;;;;;;;;;4956021;29;20443;-73
2021/12/15 15:12:24;;;;;;;232.57;88.93;;;;;;;;;;4955850;29;20134;-74
2021/12/15 15:15:03;;;;;;;268.58;105.22;;;;;;;;;;4955973;29;20035;-74
2021/12/15 15:17:49;;;;;;;276.75;107.72;;;;;;;;;;4955948;29;20331;-70
2021/12/15 15:20:27;;;;;;;281.80;105.05;;;;;;;;;;4956115;29;20039;-74
2021/12/15 15:23:01;;;;;;;278.10;107.57;;;;;;;;;;4940296;29;20037;-74
2021/12/15 15:25:31;;;;;;;283.48;109.00;;;;;;;;;;4956162;29;20078;-71
2021/12/15 15:28:01;;;;;;;346.15;134.55;;;;;;;;;;4956476;29;20031;-74
2021/12/15 15:30:46;;;;;;;295.33;111.93;;;;;;;;;;4981719;28;20014;-77
2021/12/15 15:33:27;;;;;;;241.55;97.63;;;;;;;;;;4995852;28;20022;-78
2021/12/15 15:36:01;;;;;;;230.07;89.35;;;;;;;;;;4978443;28;20050;-74
2021/12/15 15:38:30;;;;;;;227.18;90.00;;;;;;;;;;4977833;28;20423;-71
2021/12/15 15:41:02;;;;;;;272.02;106.53;;;;;;;;;;4977386;28;20089;-72
2021/12/15 15:43:37;;;;;;;253.00;97.35;;;;;;;;;;4976784;28;20122;-73
2021/12/15 15:46:06;;;;;;;321.13;133.88;;;;;;;;;;4976391;28;20030;-75
2021/12/15 15:48:37;;;;;;;326.38;132.73;;;;;;;;;;4976772;28;20027;-72
2021/12/15 15:51:07;;;;;;;243.25;93.80;;;;;;;;;;4978354;28;20475;-74
2021/12/15 15:53:35;;;;;;;310.40;110.43;;;;;;;;;;4976497;28;20117;-76
2021/12/15 15:56:13;;;;;;;321.85;107.15;;;;;;;;;;4978117;28;20324;-73
2021/12/15 15:58:44;;;;;;;322.42;110.05;;;;;;;;;;4977988;28;20225;-73
2021/12/15 16:01:13;;;;;;;305.58;109.30;;;;;;;;;;4979428;28;20026;-72